createdAt,value
2023-04-11T00:01:52.931Z,100.00
2023-04-11T00:04:21.068Z,100.00
2023-04-11T00:06:48.862Z,100.00
2023-04-11T00:09:20.081Z,100.00
2023-04-11T00:11:48.130Z,100.00
2023-04-11T00:14:15.743Z,100.00
2023-04-11T00:16:43.199Z,100.00
2023-04-11T00:19:10.859Z,100.00
2023-04-11T00:21:41.257Z,100.00
2023-04-11T00:24:08.973Z,100.00
2023-04-11T00:26:36.500Z,100.00
2023-04-11T00:29:04.100Z,100.00
2023-04-11T00:31:31.453Z,100.00
2023-04-11T00:33:59.180Z,100.00
2023-04-11T00:36:27.133Z,100.00
2023-04-11T00:38:55.435Z,100.00
2023-04-11T00:41:22.911Z,100.00
2023-04-11T00:43:50.835Z,100.00
2023-04-11T00:46:18.857Z,100.00
2023-04-11T00:48:47.152Z,100.00
2023-04-11T00:51:16.202Z,100.00
2023-04-11T00:53:45.841Z,100.00
2023-04-11T00:56:13.586Z,100.00
2023-04-11T00:58:42.228Z,100.00
2023-04-11T01:01:09.698Z,100.00
2023-04-11T01:03:41.516Z,100.00
2023-04-11T01:06:13.024Z,100.00
2023-04-11T01:08:43.444Z,100.00
2023-04-11T01:11:15.931Z,100.00
2023-04-11T01:13:43.815Z,100.00
2023-04-11T01:16:11.501Z,100.00
2023-04-11T01:18:39.209Z,100.00
2023-04-11T01:21:07.193Z,100.00
2023-04-11T01:23:34.850Z,100.00
2023-04-11T01:26:02.179Z,100.00
2023-04-11T01:28:29.737Z,100.00
2023-04-11T01:30:57.902Z,100.00
2023-04-11T01:33:26.077Z,100.00
2023-04-11T01:35:53.489Z,100.00
2023-04-11T01:38:21.605Z,100.00
2023-04-11T01:40:49.113Z,100.00
2023-04-11T01:43:16.869Z,100.00
2023-04-11T01:45:44.377Z,100.00
2023-04-11T01:48:12.205Z,100.00
2023-04-11T01:50:39.542Z,100.00
2023-04-11T01:53:08.156Z,100.00
2023-04-11T01:55:35.386Z,100.00
2023-04-11T01:58:03.004Z,100.00
2023-04-11T02:00:30.401Z,100.00
2023-04-11T02:02:58.110Z,100.00
2023-04-11T02:05:25.877Z,100.00
2023-04-11T02:07:53.478Z,100.00
2023-04-11T02:10:20.691Z,100.00
2023-04-11T02:12:48.304Z,100.00
2023-04-11T02:15:15.707Z,99.77
2023-04-11T02:17:45.630Z,99.96
2023-04-11T02:20:14.580Z,99.79
2023-04-11T02:22:42.276Z,99.87
2023-04-11T02:25:09.974Z,99.76
2023-04-11T02:27:37.577Z,99.63
2023-04-11T02:30:06.313Z,99.40
2023-04-11T02:32:38.382Z,99.20
2023-04-11T02:35:07.897Z,99.13
2023-04-11T02:37:36.029Z,99.22
2023-04-11T02:40:04.578Z,99.07
2023-04-11T02:42:32.235Z,98.91
2023-04-11T02:44:59.764Z,99.18
2023-04-11T02:47:27.462Z,98.93
2023-04-11T02:49:54.712Z,98.89
2023-04-11T02:52:22.441Z,98.92
2023-04-11T02:54:49.709Z,98.95
2023-04-11T02:57:17.904Z,98.80
2023-04-11T02:59:45.648Z,98.72
2023-04-11T03:02:13.249Z,98.78
2023-04-11T03:04:40.801Z,98.83
2023-04-11T03:07:08.397Z,98.68
2023-04-11T03:09:35.633Z,98.51
2023-04-11T03:12:03.384Z,98.60
2023-04-11T03:14:32.025Z,98.82
2023-04-11T03:16:59.593Z,98.89
2023-04-11T03:19:26.859Z,98.60
2023-04-11T03:21:54.525Z,98.78
2023-04-11T03:24:22.510Z,98.34
2023-04-11T03:26:50.295Z,98.18
2023-04-11T03:29:17.547Z,98.14
2023-04-11T03:31:45.156Z,97.98
2023-04-11T03:34:12.539Z,98.02
2023-04-11T03:36:40.043Z,98.09
2023-04-11T03:39:07.411Z,97.90
2023-04-11T03:41:36.125Z,97.29
2023-04-11T03:44:03.448Z,97.05
2023-04-11T03:46:31.422Z,96.99
2023-04-11T03:48:58.860Z,96.98
2023-04-11T03:51:26.927Z,96.99
2023-04-11T03:53:54.221Z,96.88
2023-04-11T03:56:22.146Z,96.38
2023-04-11T03:58:49.546Z,95.81
2023-04-11T04:01:17.111Z,95.60
2023-04-11T04:03:44.622Z,95.45
2023-04-11T04:06:12.449Z,95.35
2023-04-11T04:08:39.783Z,95.48
2023-04-11T04:11:07.417Z,95.48
2023-04-11T04:13:34.761Z,95.28
2023-04-11T04:16:03.669Z,95.16
2023-04-11T04:18:31.296Z,94.90
2023-04-11T04:20:58.855Z,94.58
2023-04-11T04:23:26.975Z,94.21
2023-04-11T04:25:58.104Z,93.64
2023-04-11T04:28:26.213Z,93.17
2023-04-11T04:30:54.500Z,92.80
2023-04-11T04:33:22.107Z,92.52
2023-04-11T04:35:58.230Z,92.60
2023-04-11T04:38:26.160Z,92.48
2023-04-11T04:40:54.925Z,92.62
2023-04-11T04:43:24.621Z,92.49
2023-04-11T04:45:52.295Z,92.40
2023-04-11T04:48:20.149Z,92.61
2023-04-11T04:50:47.750Z,92.70
2023-04-11T04:53:15.050Z,92.72
2023-04-11T04:55:42.672Z,92.57
2023-04-11T04:58:09.921Z,92.57
2023-04-11T05:00:37.711Z,91.96
2023-04-11T05:03:06.110Z,92.04
2023-04-11T05:05:34.087Z,92.17
2023-04-11T05:08:01.440Z,92.89
2023-04-11T05:10:29.122Z,93.37
2023-04-11T05:12:56.563Z,93.63
2023-04-11T05:15:24.366Z,93.31
2023-04-11T05:17:51.703Z,93.02
2023-04-11T05:20:20.087Z,93.73
2023-04-11T05:22:49.398Z,93.69
2023-04-11T05:25:18.082Z,93.18
2023-04-11T05:27:45.483Z,92.81
2023-04-11T05:30:13.759Z,91.64
2023-04-11T05:32:41.060Z,91.49
2023-04-11T05:35:09.249Z,90.71
2023-04-11T05:37:37.326Z,89.70
2023-04-11T05:40:07.964Z,89.21
2023-04-11T05:42:35.264Z,88.02
2023-04-11T05:45:02.866Z,87.94
2023-04-11T05:47:30.195Z,86.45
2023-04-11T05:49:57.823Z,85.69
2023-04-11T05:52:25.307Z,85.54
2023-04-11T05:54:52.996Z,85.38
2023-04-11T05:57:21.117Z,84.53
2023-04-11T05:59:53.097Z,84.51
2023-04-11T06:02:20.620Z,83.97
2023-04-11T06:04:48.558Z,83.27
2023-04-11T06:07:16.279Z,82.77
2023-04-11T06:09:44.393Z,82.33
2023-04-11T06:12:11.796Z,82.21
2023-04-11T06:14:40.681Z,81.65
2023-04-11T06:17:08.271Z,80.91
2023-04-11T06:19:35.914Z,80.55
2023-04-11T06:22:03.212Z,80.34
2023-04-11T06:24:39.330Z,80.04
2023-04-11T06:27:10.218Z,79.73
2023-04-11T06:29:39.017Z,79.57
2023-04-11T06:32:07.894Z,79.57
2023-04-11T06:34:35.712Z,78.94
2023-04-11T06:37:03.056Z,78.88
2023-04-11T06:39:30.944Z,78.24
2023-04-11T06:41:58.265Z,77.34
2023-04-11T06:44:26.487Z,76.46
2023-04-11T06:46:54.630Z,75.90
2023-04-11T06:49:23.472Z,73.97
2023-04-11T06:51:51.123Z,69.91
2023-04-11T06:54:19.260Z,67.19
2023-04-11T06:56:47.528Z,63.34
2023-04-11T06:59:15.186Z,60.68
2023-04-11T07:01:42.600Z,60.14
2023-04-11T07:04:10.344Z,61.11
2023-04-11T07:06:38.253Z,61.72
2023-04-11T07:09:06.566Z,60.65
2023-04-11T07:11:34.047Z,59.66
2023-04-11T07:14:02.518Z,60.19
2023-04-11T07:16:29.901Z,59.58
2023-04-11T07:18:59.245Z,58.00
2023-04-11T07:21:30.347Z,56.60
2023-04-11T07:23:58.216Z,55.97
2023-04-11T07:26:27.367Z,54.79
2023-04-11T07:28:54.909Z,53.73
2023-04-11T07:31:22.867Z,51.99
2023-04-11T07:33:51.400Z,48.22
2023-04-11T07:36:18.718Z,45.22
2023-04-11T07:38:46.979Z,43.08
2023-04-11T07:41:14.351Z,41.33
2023-04-11T07:43:41.904Z,43.18
2023-04-11T07:46:09.291Z,46.37
2023-04-11T07:48:37.144Z,47.33
2023-04-11T07:51:04.928Z,48.51
2023-04-11T07:53:34.082Z,50.79
2023-04-11T07:56:01.639Z,51.07
2023-04-11T07:58:30.295Z,52.78
2023-04-11T08:00:59.116Z,54.13
2023-04-11T08:03:27.212Z,55.05
2023-04-11T08:05:54.737Z,55.96
2023-04-11T08:08:22.454Z,57.08
2023-04-11T08:10:51.911Z,57.91
2023-04-11T08:13:19.846Z,58.28
2023-04-11T08:15:47.178Z,58.13
2023-04-11T08:18:16.610Z,58.22
2023-04-11T08:20:44.026Z,57.23
2023-04-11T08:23:11.723Z,55.66
2023-04-11T08:25:39.484Z,52.44
2023-04-11T08:28:09.968Z,51.03
2023-04-11T08:30:37.319Z,45.77
2023-04-11T08:33:04.999Z,39.90
2023-04-11T08:35:32.372Z,35.21
2023-04-11T08:37:59.915Z,31.88
2023-04-11T08:40:28.729Z,29.29
2023-04-11T08:43:02.804Z,25.95
2023-04-11T08:45:30.328Z,22.06
2023-04-11T08:47:57.942Z,21.09
2023-04-11T08:50:26.392Z,20.00
2023-04-11T08:52:54.983Z,20.91
2023-04-11T08:55:22.405Z,20.79
2023-04-11T08:57:49.997Z,21.46
2023-04-11T09:00:23.562Z,21.94
2023-04-11T09:03:03.996Z,21.54
2023-04-11T09:05:39.642Z,20.77
2023-04-11T09:08:12.819Z,21.75
2023-04-11T09:10:45.488Z,23.58
2023-04-11T09:13:28.749Z,25.36
2023-04-11T09:16:05.847Z,27.03
2023-04-11T09:18:42.400Z,28.29
2023-04-11T09:21:19.617Z,28.64
2023-04-11T09:23:47.197Z,29.77
2023-04-11T09:26:30.051Z,29.91
2023-04-11T09:28:57.943Z,28.58
2023-04-11T09:31:45.576Z,27.55
2023-04-11T09:34:13.586Z,27.39
2023-04-11T09:36:41.211Z,27.24
2023-04-11T09:39:21.151Z,26.29
2023-04-11T09:41:48.743Z,25.79
2023-04-11T09:44:16.417Z,24.30
2023-04-11T09:46:59.854Z,22.65
2023-04-11T09:49:28.034Z,23.97
2023-04-11T09:51:59.497Z,24.44
2023-04-11T09:54:28.436Z,24.15
2023-04-11T09:56:57.349Z,23.15
2023-04-11T09:59:27.575Z,23.68
2023-04-11T10:01:56.828Z,23.93
2023-04-11T10:04:28.221Z,24.14
2023-04-11T10:07:09.165Z,22.85
2023-04-11T10:09:43.093Z,21.45
2023-04-11T10:12:10.723Z,19.49
2023-04-11T10:14:38.175Z,17.85
2023-04-11T10:17:15.743Z,17.15
2023-04-11T10:19:45.134Z,17.27
2023-04-11T10:22:59.412Z,18.02
2023-04-11T10:25:27.826Z,19.31
2023-04-11T10:28:01.575Z,20.55
2023-04-11T10:31:14.082Z,20.92
2023-04-11T10:34:19.305Z,20.65
2023-04-11T10:37:07.802Z,20.09
2023-04-11T10:39:53.986Z,18.73
2023-04-11T10:42:43.536Z,18.57
2023-04-11T10:45:21.818Z,18.76
2023-04-11T10:47:52.365Z,17.32
2023-04-11T10:50:37.066Z,16.97
2023-04-11T10:53:06.874Z,16.62
2023-04-11T10:55:51.133Z,16.57
2023-04-11T10:58:22.214Z,16.71
2023-04-11T11:00:55.806Z,15.93
2023-04-11T11:03:34.365Z,15.73
2023-04-11T11:06:06.344Z,16.25
2023-04-11T11:08:46.672Z,15.99
2023-04-11T11:11:19.562Z,15.63
2023-04-11T11:13:56.205Z,17.53
2023-04-11T11:16:26.199Z,19.35
2023-04-11T11:18:59.223Z,17.49
2023-04-11T11:21:28.891Z,17.21
2023-04-11T11:24:02.701Z,18.45
2023-04-11T11:26:44.092Z,19.07
2023-04-11T11:29:12.349Z,18.92
2023-04-11T11:31:47.841Z,18.11
2023-04-11T11:34:35.235Z,18.08
2023-04-11T11:37:06.786Z,17.14
2023-04-11T11:39:35.615Z,16.52
2023-04-11T11:42:03.608Z,15.64
2023-04-11T11:44:32.841Z,15.47
2023-04-11T11:47:17.152Z,14.57
2023-04-11T11:49:56.202Z,14.78
2023-04-11T11:52:37.713Z,15.39
2023-04-11T11:55:11.405Z,15.73
2023-04-11T11:57:46.034Z,15.31
2023-04-11T12:00:15.098Z,15.36
2023-04-11T12:02:44.578Z,15.06
2023-04-11T12:05:13.028Z,14.96
2023-04-11T12:07:40.727Z,15.17
2023-04-11T12:10:14.984Z,14.75
2023-04-11T12:12:53.315Z,14.86
2023-04-11T12:15:24.585Z,15.68
2023-04-11T12:17:54.015Z,15.25
2023-04-11T12:20:27.328Z,15.51
2023-04-11T12:22:55.427Z,14.74
2023-04-11T12:25:25.756Z,15.82
2023-04-11T12:27:53.115Z,16.40
2023-04-11T12:30:20.898Z,17.72
2023-04-11T12:32:48.268Z,18.75
2023-04-11T12:35:15.845Z,17.42
2023-04-11T12:37:44.532Z,16.72
2023-04-11T12:40:13.077Z,16.34
2023-04-11T12:42:53.073Z,15.76
2023-04-11T12:45:23.521Z,16.11
2023-04-11T12:47:51.129Z,16.28
2023-04-11T12:50:18.899Z,16.25
2023-04-11T12:52:46.362Z,17.05
2023-04-11T12:55:13.994Z,16.68
2023-04-11T12:57:42.497Z,16.51
2023-04-11T13:00:11.713Z,15.49
2023-04-11T13:02:44.570Z,15.50
2023-04-11T13:05:17.029Z,15.50
2023-04-11T13:07:46.129Z,16.33
2023-04-11T13:10:16.376Z,18.12
2023-04-11T13:12:45.581Z,19.06
2023-04-11T13:15:17.097Z,18.08
2023-04-11T13:17:44.928Z,17.54
2023-04-11T13:20:13.506Z,17.44
2023-04-11T13:22:42.405Z,17.18
2023-04-11T13:25:12.294Z,16.93
2023-04-11T13:27:40.281Z,16.65
2023-04-11T13:30:10.008Z,17.10
2023-04-11T13:32:37.461Z,17.03
2023-04-11T13:35:06.313Z,17.72
2023-04-11T13:37:33.822Z,19.32
2023-04-11T13:40:01.562Z,20.78
2023-04-11T13:42:28.909Z,22.54
2023-04-11T13:44:56.576Z,23.51
2023-04-11T13:47:24.781Z,24.79
2023-04-11T13:49:52.602Z,25.56
2023-04-11T13:52:22.293Z,26.89
2023-04-11T13:54:50.338Z,27.73
2023-04-11T13:57:17.648Z,28.70
2023-04-11T13:59:45.404Z,29.29
2023-04-11T14:02:12.823Z,29.54
2023-04-11T14:04:40.682Z,30.53
2023-04-11T14:07:08.162Z,31.20
2023-04-11T14:09:35.859Z,31.85
2023-04-11T14:12:04.268Z,31.27
2023-04-11T14:14:32.552Z,32.44
2023-04-11T14:17:00.169Z,33.42
2023-04-11T14:19:27.853Z,33.44
2023-04-11T14:21:55.211Z,33.78
2023-04-11T14:24:22.964Z,35.09
2023-04-11T14:26:50.447Z,35.76
2023-04-11T14:29:19.871Z,36.71
2023-04-11T14:31:48.466Z,37.27
2023-04-11T14:34:18.632Z,38.62
2023-04-11T14:36:45.967Z,39.65
2023-04-11T14:39:13.671Z,41.16
2023-04-11T14:41:41.282Z,41.59
2023-04-11T14:44:08.971Z,41.85
2023-04-11T14:46:36.834Z,43.20
2023-04-11T14:49:04.775Z,43.81
2023-04-11T14:51:32.602Z,44.50
2023-04-11T14:54:00.824Z,45.55
2023-04-11T14:56:28.341Z,47.43
2023-04-11T14:58:55.853Z,48.39
2023-04-11T15:01:23.316Z,50.42
2023-04-11T15:03:51.319Z,52.56
2023-04-11T15:06:18.743Z,54.22
2023-04-11T15:08:46.480Z,54.45
2023-04-11T15:11:13.986Z,55.78
2023-04-11T15:13:41.538Z,56.73
2023-04-11T15:16:09.059Z,58.23
2023-04-11T15:18:36.771Z,58.16
2023-04-11T15:21:04.592Z,59.01
2023-04-11T15:23:32.772Z,59.65
2023-04-11T15:26:03.155Z,59.28
2023-04-11T15:28:36.822Z,60.46
2023-04-11T15:31:07.432Z,60.78
2023-04-11T15:33:35.514Z,62.49
2023-04-11T15:36:03.257Z,63.71
2023-04-11T15:38:30.882Z,64.38
2023-04-11T15:41:00.185Z,66.08
2023-04-11T15:43:27.923Z,67.04
2023-04-11T15:45:55.365Z,67.98
2023-04-11T15:48:23.017Z,68.80
2023-04-11T15:50:51.081Z,70.23
2023-04-11T15:53:18.684Z,71.39
2023-04-11T15:55:47.785Z,70.82
2023-04-11T15:58:15.634Z,70.87
2023-04-11T16:00:43.867Z,72.93
2023-04-11T16:03:11.684Z,74.56
2023-04-11T16:05:41.331Z,74.90
2023-04-11T16:08:09.088Z,75.26
2023-04-11T16:10:36.631Z,75.31
2023-04-11T16:13:04.405Z,77.55
2023-04-11T16:15:32.454Z,78.29
2023-04-11T16:18:00.208Z,80.18
2023-04-11T16:20:28.010Z,79.74
2023-04-11T16:22:56.134Z,80.20
2023-04-11T16:25:23.708Z,81.15
2023-04-11T16:27:51.646Z,82.71
2023-04-11T16:30:19.732Z,82.98
2023-04-11T16:32:48.165Z,82.61
2023-04-11T16:35:15.720Z,81.69
2023-04-11T16:37:43.519Z,83.01
2023-04-11T16:40:11.869Z,84.67
2023-04-11T16:42:40.634Z,86.88
2023-04-11T16:45:12.447Z,85.99
2023-04-11T16:47:40.334Z,87.44
2023-04-11T16:50:08.558Z,87.76
2023-04-11T16:52:36.419Z,87.15
2023-04-11T16:55:04.196Z,87.57
2023-04-11T16:57:33.525Z,88.53
2023-04-11T17:00:06.469Z,87.84
2023-04-11T17:02:34.254Z,88.85
2023-04-11T17:05:02.021Z,88.02
2023-04-11T17:07:29.913Z,88.71
2023-04-11T17:09:57.399Z,89.66
2023-04-11T17:12:25.049Z,92.10
2023-04-11T17:14:52.811Z,91.20
2023-04-11T17:17:21.060Z,90.41
2023-04-11T17:19:48.553Z,90.44
2023-04-11T17:22:16.429Z,88.72
2023-04-11T17:24:43.934Z,88.31
2023-04-11T17:27:11.571Z,88.34
2023-04-11T17:29:39.078Z,89.87
2023-04-11T17:32:09.111Z,89.72
2023-04-11T17:34:36.773Z,90.26
2023-04-11T17:37:04.435Z,90.49
2023-04-11T17:39:32.242Z,90.53
2023-04-11T17:41:59.970Z,90.55
2023-04-11T17:44:27.425Z,91.70
2023-04-11T17:46:55.162Z,90.88
2023-04-11T17:49:22.687Z,90.81
2023-04-11T17:51:59.086Z,91.72
2023-04-11T17:55:42.311Z,90.44
2023-04-11T17:58:27.856Z,90.99
2023-04-11T18:00:57.056Z,90.22
2023-04-11T18:03:25.830Z,89.81
2023-04-11T18:05:54.724Z,89.38
2023-04-11T18:08:35.447Z,88.89
2023-04-11T18:11:11.157Z,88.42
2023-04-11T18:13:38.553Z,88.10
2023-04-11T18:16:06.497Z,88.58
2023-04-11T18:18:34.100Z,89.05
2023-04-11T18:21:07.625Z,88.37
2023-04-11T18:23:35.962Z,88.50
2023-04-11T18:26:03.585Z,87.91
2023-04-11T18:28:31.110Z,88.40
2023-04-11T18:30:58.841Z,89.07
2023-04-11T18:33:26.454Z,89.58
2023-04-11T18:35:54.281Z,89.48
2023-04-11T18:38:22.388Z,89.43
2023-04-11T18:40:54.552Z,89.34
2023-04-11T18:43:22.768Z,90.14
2023-04-11T18:45:50.746Z,89.62
2023-04-11T18:48:18.348Z,90.12
2023-04-11T18:50:48.788Z,91.50
2023-04-11T18:53:16.583Z,92.02
2023-04-11T18:55:44.547Z,92.86
2023-04-11T18:58:15.287Z,92.37
2023-04-11T19:00:44.476Z,92.49
2023-04-11T19:03:16.470Z,92.20
2023-04-11T19:05:45.519Z,92.13
2023-04-11T19:08:13.851Z,92.90
2023-04-11T19:10:41.772Z,93.79
2023-04-11T19:13:09.514Z,93.69
2023-04-11T19:15:40.565Z,94.11
2023-04-11T19:18:09.106Z,93.75
2023-04-11T19:20:39.047Z,93.43
2023-04-11T19:23:06.687Z,93.43
2023-04-11T19:25:34.864Z,93.54
2023-04-11T19:28:03.142Z,93.59
2023-04-11T19:30:31.251Z,93.59
2023-04-11T19:32:58.907Z,93.92
2023-04-11T19:35:27.396Z,93.84
2023-04-11T19:37:54.816Z,93.87
2023-04-11T19:40:23.535Z,93.87
2023-04-11T19:42:51.723Z,93.47
2023-04-11T19:45:19.628Z,93.74
2023-04-11T19:47:46.990Z,93.63
2023-04-11T19:50:14.914Z,93.01
2023-04-11T19:52:43.347Z,92.79
2023-04-11T19:55:12.699Z,92.82
2023-04-11T19:57:41.259Z,93.00
2023-04-11T20:00:14.423Z,93.71
2023-04-11T20:02:46.378Z,93.15
2023-04-11T20:05:20.022Z,93.42
2023-04-11T20:07:48.239Z,93.36
2023-04-11T20:10:16.856Z,93.09
2023-04-11T20:12:44.563Z,93.15
2023-04-11T20:15:12.586Z,93.56
2023-04-11T20:17:40.060Z,93.66
2023-04-11T20:20:09.147Z,94.31
2023-04-11T20:22:39.350Z,94.87
2023-04-11T20:25:08.257Z,94.50
2023-04-11T20:27:36.424Z,95.63
2023-04-11T20:30:12.305Z,95.79
2023-04-11T20:32:41.202Z,95.35
2023-04-11T20:35:12.203Z,95.31
2023-04-11T20:37:41.461Z,94.82
2023-04-11T20:40:11.106Z,94.46
2023-04-11T20:42:40.177Z,95.40
2023-04-11T20:45:11.347Z,94.68
2023-04-11T20:47:40.495Z,95.02
2023-04-11T20:50:10.683Z,95.09
2023-04-11T20:52:38.792Z,95.08
2023-04-11T20:55:07.557Z,94.80
2023-04-11T20:57:35.006Z,94.80
2023-04-11T21:00:23.354Z,95.30
2023-04-11T21:02:51.867Z,94.71
2023-04-11T21:05:25.077Z,95.78
2023-04-11T21:07:55.687Z,95.00
2023-04-11T21:10:23.542Z,95.15
2023-04-11T21:12:54.429Z,95.27
2023-04-11T21:15:22.544Z,94.91
2023-04-11T21:17:50.633Z,95.42
2023-04-11T21:20:18.614Z,95.64
2023-04-11T21:22:48.263Z,95.69
2023-04-11T21:25:16.550Z,96.20
2023-04-11T21:27:43.846Z,95.80
2023-04-11T21:30:13.944Z,96.17
2023-04-11T21:32:41.594Z,96.19
2023-04-11T21:35:11.609Z,96.71
2023-04-11T21:37:39.211Z,96.16
2023-04-11T21:40:07.681Z,95.33
2023-04-11T21:42:35.105Z,95.62
2023-04-11T21:45:02.720Z,95.89
2023-04-11T21:47:29.996Z,95.52
2023-04-11T21:49:57.605Z,95.24
2023-04-11T21:52:25.049Z,94.99
2023-04-11T21:54:52.613Z,94.69
2023-04-11T21:57:20.054Z,94.77
2023-04-11T21:59:47.616Z,95.43
2023-04-11T22:02:15.205Z,95.06
2023-04-11T22:05:00.911Z,95.90
2023-04-11T22:07:38.468Z,96.15
2023-04-11T22:10:10.202Z,96.34
2023-04-11T22:12:38.241Z,96.31
2023-04-11T22:15:06.943Z,96.30
2023-04-11T22:17:37.249Z,96.03
2023-04-11T22:20:06.933Z,96.73
2023-04-11T22:22:35.415Z,97.07
2023-04-11T22:25:03.786Z,97.47
2023-04-11T22:27:34.683Z,96.99
2023-04-11T22:30:02.644Z,97.49
2023-04-11T22:32:30.651Z,96.91
2023-04-11T22:34:59.739Z,96.56
2023-04-11T22:37:27.295Z,96.69
2023-04-11T22:39:55.194Z,96.57
2023-04-11T22:42:22.433Z,96.69
2023-04-11T22:44:49.986Z,96.78
2023-04-11T22:47:21.791Z,96.71
2023-04-11T22:49:50.536Z,96.91
2023-04-11T22:52:24.294Z,96.33
2023-04-11T22:54:52.232Z,96.11
2023-04-11T22:57:19.568Z,96.10
2023-04-11T22:59:47.375Z,96.53
2023-04-11T23:02:14.746Z,96.49
2023-04-11T23:04:42.516Z,96.84
2023-04-11T23:07:10.380Z,96.68
2023-04-11T23:09:38.156Z,96.55
2023-04-11T23:12:05.681Z,96.59
2023-04-11T23:14:33.287Z,96.02
2023-04-11T23:17:00.660Z,96.13
2023-04-11T23:19:30.223Z,96.44
2023-04-11T23:21:57.593Z,95.93
2023-04-11T23:24:25.201Z,95.93
2023-04-11T23:26:52.709Z,95.65
2023-04-11T23:29:20.245Z,95.94
2023-04-11T23:31:47.725Z,95.64
2023-04-11T23:34:15.428Z,95.69
2023-04-11T23:36:43.478Z,94.90
2023-04-11T23:39:11.181Z,94.96
2023-04-11T23:41:38.419Z,94.53
2023-04-11T23:44:06.057Z,93.87
2023-04-11T23:46:33.501Z,94.12
2023-04-11T23:49:01.116Z,94.21
2023-04-11T23:51:28.477Z,93.99
2023-04-11T23:53:56.289Z,93.60
2023-04-11T23:56:23.951Z,93.21
2023-04-11T23:58:51.484Z,93.12
